首页
METAR-TAF:

METAR-TAF

机场 :

St. Catharines, 安大略省, 加拿大

纬度: 43-12N, 经度: 079-10W, 海拔: 98米

当前天气观测

该预报发布于1小时和18分钟前的15:00 UTC
风速4节,风向,在之间变化
温度 -1°C
湿度 59%
气压 1026 hPa
能見度: 24.1公里
多云层高于3300英尺

METAR: CYSN 171500Z 08004KT 010V100 15SM BKN033 M01/M08 A3031 RMK SC7 SLP270

时间: 11:18 (16:18 UTC)

预报

该预报发布于2小时和40分钟前的13:38 UTC
预报有效从17日的 14点(UTC)到 18日的 02点(UTC)
风速8节,风向北转东北
能見度: 10公里
阴天层高于2500英尺
从 17日的 1800点(UTC)
风速10节,风向东北
能見度: 10公里
少量云层高于3000英尺
少量云层高于24000英尺
从 18日的 0000点(UTC)
风速10节,风向东转东北
能見度: 10公里
散云层高于14000英尺
多云层高于20000英尺

TAF: CYSN 171338Z 1714/1802 03008KT P6SM OVC025 FM171800 05010KT P6SM FEW030 FEW240 FM180000 07010KT P6SM SCT140 BKN200 RMK NXT FCST BY 172000Z

超过4000个机场的气象观测和天气预报(METAR&TAF报告)。

可查询的气象台以黄色和红色小点在地图上表示。

将鼠标移到小点上方,可查看气象台名称。

然后点击查看天气观测和预报。

如需切换地图:点击带黑十字的绿色按钮放大地图;点击带横线的绿色按钮缩小地图;或者点击绿色箭头查看邻近地区的地图。


METAR-TAF: